METAR AND TAF INFORMATION
METAR FOR EFKT
ADDS - METARS form results

(1844 UTC 28 September 2021)
Data provider http://aviationweather.gov/metar/data/
 
METAR text: EFKT 281820Z AUTO 19004KT CAVOK 07/05 Q1029
Conditions at: EFKT (KITTILA , FI) observed 1820 UTC 28 September 2021
Temperature: 7.0°C (45°F)
Dewpoint: 5.0°C (41°F) [RH = 87%]
Pressure (altimeter): 30.38 inches Hg (1029.0 mb)
Winds: from the S (190 degrees) at 5 MPH (4 knots; 2.1 m/s)
Visibility: 6 or more miles (10+ km)
Ceiling: ceiling and visibility are OK
Clouds: unknown
Weather: no significant weather observed at this time

METAR text: EFKT 281750Z AUTO 20004KT CAVOK 08/05 Q1029
Conditions at: EFKT (KITTILA , FI) observed 1750 UTC 28 September 2021
Temperature: 8.0°C (46°F)
Dewpoint: 5.0°C (41°F) [RH = 81%]
Pressure (altimeter): 30.38 inches Hg (1029.0 mb)
Winds: from the SSW (200 degrees) at 5 MPH (4 knots; 2.1 m/s)
Visibility: 6 or more miles (10+ km)
Ceiling: ceiling and visibility are OK
Clouds: unknown
Weather: no significant weather observed at this time

Forecast for: EFKT (KITTILA , FI)
Text: TAF EFKT 281725Z 2818/2821 18006KT CAVOK
Forecast period: 1800 to 2100 UTC 28 September 2021
Forecast type: FROM: standard forecast or significant change
Winds: from the S (180 degrees) at 7 MPH (6 knots; 3.1 m/s)
Visibility: 6 or more miles (10+ km)
Ceiling: unknown
Clouds: missing
Weather: NSW  (no significant weather)
Text: TEMPO 2819/2821 BKN005
Forecast period: 1900 to 2100 UTC 28 September 2021
Forecast type: TEMPORARY: The following changes expected for less than half the time period
Visibility: missing
Ceiling: 500 feet AGL
Clouds: broken clouds at 500 feet AGL
Weather: no significant weather forecast for this period

 AIRPORT MAP

 RUNWAY INFORMATION
Runway 16 Runway length 8202 ft Runway width 148 ft
Runway elevation 632 ft Runway displaced threshold 0 ft Runway heading 166
Runway 34 Runway length 8202 ft Runway width 148 ft
Runway elevation 644 ft Runway displaced threshold 0 ft Runway heading 346

 AIRPORT FREQUENCIES
Type AFIS Name AFIS Frequency 118.95 MHZ
Type ATIS Name ATIS Frequency 133.85 MHZ

 AIRPORT NEAR NAVIGATION AIDS
Type NDB Name Kittila Frequency 328 KHZ



Powered by Western Air Virtual